createdAt,value
2022-11-28T00:00:08.553Z,49.58
2022-11-28T00:02:41.944Z,48.97
2022-11-28T00:05:14.435Z,54.03
2022-11-28T00:07:43.355Z,46.35
2022-11-28T00:10:20.583Z,50.10
2022-11-28T00:12:50.803Z,47.85
2022-11-28T00:15:20.476Z,52.47
2022-11-28T00:17:50.957Z,51.47
2022-11-28T00:20:38.369Z,50.53
2022-11-28T00:23:07.179Z,62.08
2022-11-28T00:28:43.223Z,57.65
2022-11-28T00:31:23.184Z,59.50
2022-11-28T00:33:52.196Z,49.08
2022-11-28T00:36:24.350Z,70.15
2022-11-28T00:38:54.112Z,57.53
2022-11-28T00:41:27.313Z,60.80
2022-11-28T00:43:55.618Z,58.38
2022-11-28T00:46:24.464Z,64.43
2022-11-28T00:49:12.623Z,65.85
2022-11-28T00:51:40.718Z,58.30
2022-11-28T00:54:11.212Z,64.00
2022-11-28T00:56:45.794Z,56.95
2022-11-28T00:59:14.789Z,61.30
2022-11-28T01:02:04.019Z,62.30
2022-11-28T01:05:13.890Z,58.38
2022-11-28T01:08:01.832Z,52.33
2022-11-28T01:10:44.591Z,60.58
2022-11-28T01:13:26.719Z,60.88
2022-11-28T01:15:55.997Z,50.17
2022-11-28T01:18:23.922Z,60.80
2022-11-28T01:20:51.688Z,64.35
2022-11-28T01:23:20.085Z,53.72
2022-11-28T01:25:48.344Z,59.20
2022-11-28T01:28:16.113Z,55.75
2022-11-28T01:30:43.718Z,59.47
2022-11-28T01:33:11.643Z,57.85
2022-11-28T01:35:40.024Z,58.10
2022-11-28T01:38:09.051Z,62.63
2022-11-28T01:40:37.651Z,57.65
2022-11-28T01:43:10.342Z,59.80
2022-11-28T01:45:40.283Z,55.50
2022-11-28T01:48:09.366Z,48.90
2022-11-28T01:50:37.321Z,57.42
2022-11-28T01:53:07.406Z,57.22
2022-11-28T01:56:08.548Z,59.33
2022-11-28T01:58:40.173Z,58.95
2022-11-28T02:01:08.000Z,50.78
2022-11-28T02:03:46.494Z,51.58
2022-11-28T02:06:18.963Z,54.33
2022-11-28T02:08:46.979Z,48.70
2022-11-28T02:11:27.760Z,57.08
2022-11-28T02:14:29.869Z,58.05
2022-11-28T02:17:21.039Z,54.20
2022-11-28T02:20:00.638Z,63.05
2022-11-28T02:22:34.062Z,46.63
2022-11-28T02:25:18.826Z,57.20
2022-11-28T02:37:14.670Z,60.97
2022-11-28T02:49:53.014Z,62.88
2022-11-28T02:55:45.909Z,58.00
2022-11-28T02:58:24.305Z,63.13
2022-11-28T03:00:52.667Z,57.85
2022-11-28T03:03:57.831Z,57.67
2022-11-28T03:09:58.955Z,62.20
2022-11-28T03:12:36.642Z,66.85
2022-11-28T03:15:07.140Z,65.18
2022-11-28T03:17:56.280Z,63.40
2022-11-28T03:20:44.003Z,63.05
2022-11-28T03:23:17.603Z,65.60
2022-11-28T03:25:45.203Z,62.80
2022-11-28T03:28:29.845Z,63.92
2022-11-28T03:31:02.050Z,59.70
2022-11-28T03:33:41.245Z,69.85
2022-11-28T03:36:16.582Z,64.75
2022-11-28T03:38:49.619Z,62.63
2022-11-28T03:41:26.226Z,61.20
2022-11-28T03:43:56.929Z,60.15
2022-11-28T03:46:28.317Z,65.10
2022-11-28T03:48:59.255Z,67.90
2022-11-28T03:51:34.393Z,76.30
2022-11-28T03:54:25.344Z,68.15
2022-11-28T03:57:00.591Z,59.30
2022-11-28T03:59:37.375Z,59.13
2022-11-28T04:02:36.721Z,54.08
2022-11-28T04:05:24.444Z,52.70
2022-11-28T04:08:14.365Z,46.72
2022-11-28T04:11:03.248Z,41.17
2022-11-28T04:13:38.075Z,36.45
2022-11-28T04:16:11.795Z,20.90
2022-11-28T04:19:05.933Z,19.13
2022-11-28T04:21:55.870Z,18.55
2022-11-28T04:24:54.518Z,16.60
2022-11-28T04:27:44.597Z,13.73
2022-11-28T04:33:03.169Z,14.20
2022-11-28T04:35:53.165Z,14.63
2022-11-28T04:38:32.426Z,14.10
2022-11-28T04:41:19.341Z,15.95
2022-11-28T04:44:00.952Z,18.73
2022-11-28T04:46:38.041Z,21.02
2022-11-28T04:49:18.404Z,20.58
2022-11-28T04:52:05.921Z,21.73
2022-11-28T04:55:05.132Z,22.52
2022-11-28T04:57:50.644Z,22.02
2022-11-28T05:00:25.110Z,22.50
2022-11-28T05:03:03.750Z,24.63
2022-11-28T05:05:32.926Z,22.77
2022-11-28T05:11:03.270Z,28.80
2022-11-28T05:16:35.074Z,20.13
2022-11-28T05:29:35.243Z,19.33
2022-11-28T05:35:40.425Z,30.65
2022-11-28T05:59:31.990Z,13.60
2022-11-28T06:15:06.602Z,15.73
2022-11-28T06:17:36.957Z,17.95
2022-11-28T06:20:13.973Z,17.55
2022-11-28T06:36:43.363Z,18.17
2022-11-28T06:52:43.216Z,21.07
2022-11-28T06:55:10.629Z,24.25
2022-11-28T06:57:39.018Z,27.05
2022-11-28T07:00:07.356Z,25.27
2022-11-28T07:02:34.863Z,31.50
2022-11-28T07:05:07.774Z,29.05
2022-11-28T07:07:45.769Z,28.17
2022-11-28T07:10:22.062Z,29.55
2022-11-28T07:13:01.234Z,30.15
2022-11-28T07:15:31.941Z,28.52
2022-11-28T07:17:59.238Z,36.53
2022-11-28T07:20:26.525Z,32.05
2022-11-28T07:22:53.827Z,31.98
2022-11-28T07:25:21.999Z,25.80
2022-11-28T07:27:51.674Z,28.98
2022-11-28T07:30:20.340Z,28.63
2022-11-28T07:32:48.304Z,30.52
2022-11-28T07:35:15.769Z,28.10
2022-11-28T07:37:43.288Z,34.20
2022-11-28T07:40:10.877Z,32.65
2022-11-28T07:42:38.273Z,29.35
2022-11-28T07:45:06.828Z,36.08
2022-11-28T07:47:34.414Z,32.28
2022-11-28T07:50:04.232Z,36.53
2022-11-28T07:52:31.805Z,33.75
2022-11-28T07:54:59.329Z,31.92
2022-11-28T07:57:27.145Z,40.45
2022-11-28T07:59:54.581Z,41.22
2022-11-28T08:02:22.400Z,40.45
2022-11-28T08:04:53.972Z,34.70
2022-11-28T08:07:23.562Z,38.90
2022-11-28T08:09:51.245Z,46.03
2022-11-28T08:12:18.883Z,45.00
2022-11-28T08:14:46.790Z,38.28
2022-11-28T08:17:16.070Z,50.42
2022-11-28T08:19:43.569Z,49.20
2022-11-28T08:22:11.215Z,45.88
2022-11-28T08:24:41.091Z,54.88
2022-11-28T08:27:09.028Z,51.15
2022-11-28T08:29:36.602Z,52.28
2022-11-28T08:32:04.118Z,61.75
2022-11-28T08:34:31.719Z,50.83
2022-11-28T10:06:00.306Z,24.88
2022-11-28T10:08:45.471Z,27.10
2022-11-28T10:11:51.375Z,30.58
2022-11-28T10:14:58.441Z,23.08
2022-11-28T10:18:12.012Z,26.52
2022-11-28T10:20:57.200Z,31.83
2022-11-28T10:24:17.724Z,27.98
2022-11-28T10:27:00.932Z,26.58
2022-11-28T10:29:33.525Z,25.10
2022-11-28T10:32:03.050Z,23.42
2022-11-28T10:34:35.697Z,24.63
2022-11-28T10:37:25.555Z,23.95
2022-11-28T10:39:55.757Z,23.45
2022-11-28T10:45:41.958Z,34.58
2022-11-28T10:48:39.098Z,27.58
2022-11-28T10:52:03.934Z,34.45
2022-11-28T10:54:44.190Z,34.83
2022-11-28T10:57:29.805Z,33.88
2022-11-28T11:00:15.983Z,34.95
2022-11-28T11:02:48.529Z,39.72
2022-11-28T11:05:19.796Z,30.27
2022-11-28T11:07:52.783Z,35.90
2022-11-28T16:59:24.624Z,34.40
2022-11-28T17:01:57.313Z,30.42
2022-11-28T17:04:28.909Z,33.58
2022-11-28T17:07:01.948Z,31.15
2022-11-28T17:09:30.818Z,29.70
2022-11-28T17:12:06.284Z,22.83
2022-11-28T17:14:35.388Z,24.70
2022-11-28T17:17:10.875Z,27.83
2022-11-28T17:19:39.664Z,25.60
2022-11-28T17:22:08.416Z,26.92
2022-11-28T17:24:36.585Z,35.95
2022-11-28T17:27:08.018Z,24.95
2022-11-28T17:29:35.828Z,26.58
2022-11-28T17:32:06.662Z,23.27
2022-11-28T17:34:35.257Z,24.55
2022-11-28T17:37:05.338Z,25.67
2022-11-28T17:39:36.511Z,25.70
2022-11-28T17:42:07.865Z,22.23
2022-11-28T17:44:38.517Z,22.73
2022-11-28T17:47:07.456Z,28.08
2022-11-28T17:49:35.256Z,23.45
2022-11-28T17:52:06.381Z,25.80
2022-11-28T17:54:36.799Z,24.27
2022-11-28T17:57:09.215Z,24.10
2022-11-28T17:59:38.930Z,20.88
2022-11-28T18:02:07.049Z,26.38
2022-11-28T18:04:35.107Z,31.15
2022-11-28T18:07:03.184Z,23.85
2022-11-28T18:09:31.613Z,34.10
2022-11-28T18:12:07.162Z,31.20
2022-11-28T18:14:39.655Z,26.33
2022-11-28T18:17:07.789Z,30.60
2022-11-28T18:19:35.855Z,25.45
2022-11-28T18:22:03.926Z,27.63
2022-11-28T18:24:38.048Z,31.55
2022-11-28T18:27:06.694Z,28.67
2022-11-28T18:29:37.417Z,29.85
2022-11-28T18:32:15.179Z,26.92
2022-11-28T18:35:02.969Z,26.58
2022-11-28T18:37:30.869Z,27.85
2022-11-28T18:39:58.625Z,28.45
2022-11-28T18:42:26.784Z,30.27
2022-11-28T18:44:56.891Z,26.77
2022-11-28T18:47:26.329Z,27.27
2022-11-28T18:49:57.409Z,31.53
2022-11-28T18:52:43.521Z,28.10
2022-11-28T18:55:11.669Z,24.33
2022-11-28T18:57:41.385Z,28.90
2022-11-28T19:00:12.811Z,25.60
2022-11-28T19:02:43.672Z,25.05
2022-11-28T19:05:11.914Z,29.08
2022-11-28T19:07:44.507Z,25.92
2022-11-28T19:10:15.995Z,23.80
2022-11-28T19:12:45.967Z,28.33
2022-11-28T19:15:13.685Z,25.55
2022-11-28T19:17:41.258Z,29.17
2022-11-28T19:20:10.024Z,27.17
2022-11-28T19:22:40.650Z,25.65
2022-11-28T19:25:08.815Z,26.10
2022-11-28T19:27:36.587Z,26.67
2022-11-28T19:30:05.959Z,28.23
2022-11-28T19:32:33.468Z,24.95
2022-11-28T19:35:08.267Z,24.02
2022-11-28T19:37:38.988Z,24.80
2022-11-28T19:40:11.215Z,28.50
2022-11-28T19:42:40.521Z,22.00
2022-11-28T19:45:09.239Z,25.10
2022-11-28T19:47:37.143Z,26.23
2022-11-28T19:50:05.047Z,25.25
2022-11-28T19:52:32.555Z,20.00
2022-11-28T19:54:59.934Z,22.70
2022-11-28T19:57:27.666Z,17.98
2022-11-28T19:59:55.120Z,18.45
2022-11-28T20:02:23.574Z,18.00
2022-11-28T20:04:51.061Z,22.15
2022-11-28T20:07:18.334Z,24.38
2022-11-28T20:09:45.928Z,22.13
2022-11-28T20:12:13.468Z,24.30
2022-11-28T20:14:41.045Z,23.27
2022-11-28T20:17:10.888Z,19.50
2022-11-28T20:19:38.482Z,22.10
2022-11-28T20:22:05.684Z,23.17
2022-11-28T20:24:33.075Z,23.13
2022-11-28T20:27:00.443Z,25.13
2022-11-28T20:29:29.054Z,23.15
2022-11-28T20:31:57.496Z,20.83
2022-11-28T20:34:28.838Z,23.70
2022-11-28T20:36:58.404Z,21.42
2022-11-28T20:39:26.082Z,20.58
2022-11-28T20:41:53.569Z,21.27
2022-11-28T20:44:29.761Z,23.92
2022-11-28T20:46:57.352Z,25.83
2022-11-28T20:49:25.255Z,23.42
2022-11-28T20:51:52.842Z,24.55
2022-11-28T20:54:23.288Z,23.88
2022-11-28T20:59:42.871Z,23.67
2022-11-28T21:02:11.703Z,16.73
2022-11-28T21:04:39.018Z,20.75
2022-11-28T21:07:06.342Z,22.42
2022-11-28T21:09:34.293Z,18.52
2022-11-28T21:12:01.627Z,25.08
2022-11-28T21:14:29.392Z,21.50
2022-11-28T21:16:57.997Z,23.98
2022-11-28T21:19:25.558Z,24.63
2022-11-28T21:21:53.291Z,23.75
2022-11-28T21:24:20.886Z,24.50
2022-11-28T21:26:53.385Z,26.52
2022-11-28T21:29:21.668Z,22.70
2022-11-28T21:31:49.646Z,23.85
2022-11-28T21:34:17.778Z,22.98
2022-11-28T21:36:46.097Z,20.75
2022-11-28T21:39:15.669Z,22.30
2022-11-28T21:41:43.003Z,21.17
2022-11-28T21:44:10.556Z,22.63
2022-11-28T21:46:38.043Z,22.95
2022-11-28T21:49:05.764Z,25.27
2022-11-28T21:51:33.221Z,21.52
2022-11-28T21:54:02.090Z,18.17
2022-11-28T21:56:32.472Z,22.40
2022-11-28T21:59:01.818Z,20.05
2022-11-28T22:01:29.314Z,23.55
2022-11-28T22:04:02.421Z,20.45
2022-11-28T22:06:30.887Z,22.65
2022-11-28T22:08:58.785Z,19.80
2022-11-28T22:11:26.137Z,19.50
2022-11-28T22:13:53.597Z,18.08
2022-11-28T22:16:28.810Z,20.17
2022-11-28T22:18:58.613Z,23.13
2022-11-28T22:21:51.422Z,23.38
2022-11-28T22:24:16.479Z,22.08
2022-11-28T22:26:44.146Z,22.27
2022-11-28T22:29:11.878Z,17.35
2022-11-28T22:31:39.478Z,19.88
2022-11-28T22:34:06.835Z,20.23
2022-11-28T22:36:34.449Z,13.45
2022-11-28T22:39:02.840Z,22.98
2022-11-28T22:50:52.574Z,21.10
2022-11-28T22:56:32.250Z,21.45
2022-11-28T22:59:00.901Z,25.38
2022-11-28T23:07:57.462Z,14.20
2022-11-28T23:10:25.541Z,20.35
2022-11-28T23:12:54.116Z,24.92
2022-11-28T23:15:22.397Z,18.20
2022-11-28T23:17:50.235Z,17.83
2022-11-28T23:20:18.368Z,19.92
2022-11-28T23:22:46.187Z,20.45
2022-11-28T23:25:13.628Z,23.42
2022-11-28T23:27:41.255Z,21.88
2022-11-28T23:30:10.978Z,21.17
2022-11-28T23:32:41.903Z,17.73
2022-11-28T23:35:09.873Z,19.98
2022-11-28T23:37:40.018Z,23.98
2022-11-28T23:40:08.268Z,16.98
2022-11-28T23:42:37.505Z,15.50
2022-11-28T23:45:07.754Z,17.77
2022-11-28T23:47:35.699Z,19.73
2022-11-28T23:50:04.298Z,17.60
2022-11-28T23:52:32.140Z,19.33
2022-11-28T23:55:00.602Z,23.88
2022-11-28T23:57:34.855Z,15.93
